sensor_id;sensor_type;location;lat;lon;timestamp;P1;durP1;ratioP1;P2;durP2;ratioP2
60722;SDS011;46574;52.818;6.516;2022-11-15T00:01:53;24.08;;;19.88;;
60722;SDS011;46574;52.818;6.516;2022-11-15T00:04:19;24.08;;;18.58;;
60722;SDS011;46574;52.818;6.516;2022-11-15T00:06:44;23.17;;;18.17;;
60722;SDS011;46574;52.818;6.516;2022-11-15T00:09:10;22.45;;;18.60;;
60722;SDS011;46574;52.818;6.516;2022-11-15T00:11:35;23.17;;;17.58;;
60722;SDS011;46574;52.818;6.516;2022-11-15T00:14:01;21.13;;;16.48;;
60722;SDS011;46574;52.818;6.516;2022-11-15T00:16:27;24.50;;;17.77;;
60722;SDS011;46574;52.818;6.516;2022-11-15T00:18:53;23.77;;;18.33;;
60722;SDS011;46574;52.818;6.516;2022-11-15T00:21:19;23.20;;;18.65;;
60722;SDS011;46574;52.818;6.516;2022-11-15T00:23:44;22.60;;;19.08;;
60722;SDS011;46574;52.818;6.516;2022-11-15T00:26:11;25.35;;;19.80;;
60722;SDS011;46574;52.818;6.516;2022-11-15T00:28:38;27.17;;;20.40;;
60722;SDS011;46574;52.818;6.516;2022-11-15T00:31:05;24.88;;;19.30;;
60722;SDS011;46574;52.818;6.516;2022-11-15T00:33:33;23.92;;;18.38;;
60722;SDS011;46574;52.818;6.516;2022-11-15T00:36:00;24.08;;;18.27;;
60722;SDS011;46574;52.818;6.516;2022-11-15T00:38:31;27.90;;;20.65;;
60722;SDS011;46574;52.818;6.516;2022-11-15T00:40:57;24.13;;;18.90;;
60722;SDS011;46574;52.818;6.516;2022-11-15T00:43:23;26.55;;;19.65;;
60722;SDS011;46574;52.818;6.516;2022-11-15T00:45:49;25.63;;;19.33;;
60722;SDS011;46574;52.818;6.516;2022-11-15T00:48:14;24.40;;;18.33;;
60722;SDS011;46574;52.818;6.516;2022-11-15T00:50:40;26.17;;;19.20;;
60722;SDS011;46574;52.818;6.516;2022-11-15T00:53:05;28.95;;;19.83;;
60722;SDS011;46574;52.818;6.516;2022-11-15T00:55:31;27.45;;;19.27;;
60722;SDS011;46574;52.818;6.516;2022-11-15T00:57:57;25.27;;;19.45;;
60722;SDS011;46574;52.818;6.516;2022-11-15T01:00:22;25.02;;;18.48;;
60722;SDS011;46574;52.818;6.516;2022-11-15T01:02:48;25.52;;;18.95;;
60722;SDS011;46574;52.818;6.516;2022-11-15T01:05:14;24.58;;;18.50;;
60722;SDS011;46574;52.818;6.516;2022-11-15T01:07:39;25.90;;;18.10;;
60722;SDS011;46574;52.818;6.516;2022-11-15T01:10:05;25.10;;;18.25;;
60722;SDS011;46574;52.818;6.516;2022-11-15T01:12:31;24.88;;;17.70;;
60722;SDS011;46574;52.818;6.516;2022-11-15T01:14:57;26.20;;;18.02;;
60722;SDS011;46574;52.818;6.516;2022-11-15T01:17:23;28.13;;;19.17;;
60722;SDS011;46574;52.818;6.516;2022-11-15T01:19:48;29.80;;;19.90;;
60722;SDS011;46574;52.818;6.516;2022-11-15T01:22:14;24.17;;;17.20;;
60722;SDS011;46574;52.818;6.516;2022-11-15T01:24:40;27.73;;;19.20;;
60722;SDS011;46574;52.818;6.516;2022-11-15T01:27:06;26.13;;;18.02;;
60722;SDS011;46574;52.818;6.516;2022-11-15T01:29:31;26.85;;;19.73;;
60722;SDS011;46574;52.818;6.516;2022-11-15T01:31:57;31.50;;;19.55;;
60722;SDS011;46574;52.818;6.516;2022-11-15T01:34:23;27.42;;;19.13;;
60722;SDS011;46574;52.818;6.516;2022-11-15T01:36:48;28.50;;;20.02;;
60722;SDS011;46574;52.818;6.516;2022-11-15T01:39:14;27.58;;;19.30;;
60722;SDS011;46574;52.818;6.516;2022-11-15T01:41:40;28.33;;;19.35;;
60722;SDS011;46574;52.818;6.516;2022-11-15T01:46:57;26.52;;;18.35;;
60722;SDS011;46574;52.818;6.516;2022-11-15T01:49:25;24.55;;;17.92;;
60722;SDS011;46574;52.818;6.516;2022-11-15T01:51:55;25.65;;;18.50;;
60722;SDS011;46574;52.818;6.516;2022-11-15T01:54:21;28.90;;;19.63;;
60722;SDS011;46574;52.818;6.516;2022-11-15T01:56:50;26.90;;;18.70;;
60722;SDS011;46574;52.818;6.516;2022-11-15T01:59:21;30.15;;;20.52;;
60722;SDS011;46574;52.818;6.516;2022-11-15T02:01:47;25.77;;;18.75;;
60722;SDS011;46574;52.818;6.516;2022-11-15T02:04:15;26.38;;;18.02;;
60722;SDS011;46574;52.818;6.516;2022-11-15T02:06:45;28.95;;;18.63;;
60722;SDS011;46574;52.818;6.516;2022-11-15T02:09:13;27.42;;;18.40;;
60722;SDS011;46574;52.818;6.516;2022-11-15T02:11:39;27.40;;;17.75;;
60722;SDS011;46574;52.818;6.516;2022-11-15T02:14:06;23.88;;;16.48;;
60722;SDS011;46574;52.818;6.516;2022-11-15T02:16:35;25.85;;;18.48;;
60722;SDS011;46574;52.818;6.516;2022-11-15T02:30:31;30.17;;;18.70;;
60722;SDS011;46574;52.818;6.516;2022-11-15T02:33:13;32.08;;;19.83;;
60722;SDS011;46574;52.818;6.516;2022-11-15T02:35:52;32.75;;;21.00;;
60722;SDS011;46574;52.818;6.516;2022-11-15T02:38:28;29.50;;;20.10;;
60722;SDS011;46574;52.818;6.516;2022-11-15T02:41:15;33.05;;;19.25;;
60722;SDS011;46574;52.818;6.516;2022-11-15T02:43:51;31.63;;;19.83;;
60722;SDS011;46574;52.818;6.516;2022-11-15T02:49:16;38.05;;;21.50;;
60722;SDS011;46574;52.818;6.516;2022-11-15T02:51:43;42.90;;;22.85;;
60722;SDS011;46574;52.818;6.516;2022-11-15T02:54:17;37.90;;;22.70;;
60722;SDS011;46574;52.818;6.516;2022-11-15T02:56:46;37.95;;;21.88;;
60722;SDS011;46574;52.818;6.516;2022-11-15T03:02:17;36.35;;;21.23;;
60722;SDS011;46574;52.818;6.516;2022-11-15T03:05:04;39.20;;;21.10;;
60722;SDS011;46574;52.818;6.516;2022-11-15T03:07:47;36.53;;;22.00;;
60722;SDS011;46574;52.818;6.516;2022-11-15T03:16:16;41.10;;;23.33;;
60722;SDS011;46574;52.818;6.516;2022-11-15T03:18:54;37.85;;;22.30;;
60722;SDS011;46574;52.818;6.516;2022-11-15T03:21:27;41.60;;;22.73;;
60722;SDS011;46574;52.818;6.516;2022-11-15T03:23:55;36.83;;;22.08;;
60722;SDS011;46574;52.818;6.516;2022-11-15T03:26:26;40.95;;;23.05;;
60722;SDS011;46574;52.818;6.516;2022-11-15T03:28:59;42.13;;;23.45;;
60722;SDS011;46574;52.818;6.516;2022-11-15T03:31:51;45.65;;;25.20;;
60722;SDS011;46574;52.818;6.516;2022-11-15T03:36:49;43.05;;;23.83;;
60722;SDS011;46574;52.818;6.516;2022-11-15T03:39:17;38.03;;;22.38;;
60722;SDS011;46574;52.818;6.516;2022-11-15T03:49:51;41.03;;;24.65;;
60722;SDS011;46574;52.818;6.516;2022-11-15T03:52:19;46.33;;;26.05;;
60722;SDS011;46574;52.818;6.516;2022-11-15T03:54:53;41.72;;;24.27;;
60722;SDS011;46574;52.818;6.516;2022-11-15T03:57:20;45.28;;;26.77;;
60722;SDS011;46574;52.818;6.516;2022-11-15T03:59:46;48.00;;;27.17;;
60722;SDS011;46574;52.818;6.516;2022-11-15T04:02:12;53.03;;;27.80;;
60722;SDS011;46574;52.818;6.516;2022-11-15T04:04:37;47.88;;;27.52;;
60722;SDS011;46574;52.818;6.516;2022-11-15T04:07:03;51.30;;;27.00;;
60722;SDS011;46574;52.818;6.516;2022-11-15T04:09:29;43.22;;;24.88;;
60722;SDS011;46574;52.818;6.516;2022-11-15T04:11:55;44.45;;;25.77;;
60722;SDS011;46574;52.818;6.516;2022-11-15T04:14:20;42.45;;;25.48;;
60722;SDS011;46574;52.818;6.516;2022-11-15T04:16:46;58.88;;;29.08;;
60722;SDS011;46574;52.818;6.516;2022-11-15T04:19:12;50.33;;;27.52;;
60722;SDS011;46574;52.818;6.516;2022-11-15T04:21:56;53.30;;;28.63;;
60722;SDS011;46574;52.818;6.516;2022-11-15T04:24:40;57.03;;;29.25;;
60722;SDS011;46574;52.818;6.516;2022-11-15T04:27:05;60.85;;;30.27;;
60722;SDS011;46574;52.818;6.516;2022-11-15T04:29:31;48.45;;;28.00;;
60722;SDS011;46574;52.818;6.516;2022-11-15T04:32:01;49.95;;;28.60;;
60722;SDS011;46574;52.818;6.516;2022-11-15T04:34:30;46.50;;;27.95;;
60722;SDS011;46574;52.818;6.516;2022-11-15T04:36:56;44.95;;;27.55;;
60722;SDS011;46574;52.818;6.516;2022-11-15T04:39:37;48.70;;;28.02;;
60722;SDS011;46574;52.818;6.516;2022-11-15T04:42:04;60.70;;;30.50;;
60722;SDS011;46574;52.818;6.516;2022-11-15T04:44:29;53.85;;;28.55;;
60722;SDS011;46574;52.818;6.516;2022-11-15T04:46:55;49.50;;;27.70;;
60722;SDS011;46574;52.818;6.516;2022-11-15T04:49:21;51.45;;;29.15;;
60722;SDS011;46574;52.818;6.516;2022-11-15T04:51:47;61.78;;;33.97;;
60722;SDS011;46574;52.818;6.516;2022-11-15T04:54:13;59.47;;;30.88;;
60722;SDS011;46574;52.818;6.516;2022-11-15T04:56:39;50.83;;;29.30;;
60722;SDS011;46574;52.818;6.516;2022-11-15T04:59:04;63.28;;;33.25;;
60722;SDS011;46574;52.818;6.516;2022-11-15T05:01:30;62.50;;;32.35;;
60722;SDS011;46574;52.818;6.516;2022-11-15T05:03:56;52.47;;;29.67;;
60722;SDS011;46574;52.818;6.516;2022-11-15T05:06:40;53.38;;;31.35;;
60722;SDS011;46574;52.818;6.516;2022-11-15T05:09:05;60.50;;;33.83;;
60722;SDS011;46574;52.818;6.516;2022-11-15T05:11:31;54.67;;;31.95;;
60722;SDS011;46574;52.818;6.516;2022-11-15T05:13:57;59.28;;;32.50;;
60722;SDS011;46574;52.818;6.516;2022-11-15T05:16:22;50.50;;;30.60;;
60722;SDS011;46574;52.818;6.516;2022-11-15T05:18:51;48.08;;;30.05;;
60722;SDS011;46574;52.818;6.516;2022-11-15T05:21:20;49.47;;;30.27;;
60722;SDS011;46574;52.818;6.516;2022-11-15T05:23:46;57.80;;;31.58;;
60722;SDS011;46574;52.818;6.516;2022-11-15T05:26:12;48.33;;;30.33;;
60722;SDS011;46574;52.818;6.516;2022-11-15T05:28:40;52.00;;;30.42;;
60722;SDS011;46574;52.818;6.516;2022-11-15T05:31:10;52.85;;;32.67;;
60722;SDS011;46574;52.818;6.516;2022-11-15T05:33:38;55.97;;;32.35;;
60722;SDS011;46574;52.818;6.516;2022-11-15T05:36:06;46.88;;;30.02;;
60722;SDS011;46574;52.818;6.516;2022-11-15T05:38:42;49.25;;;30.05;;
60722;SDS011;46574;52.818;6.516;2022-11-15T05:41:09;46.45;;;30.85;;
60722;SDS011;46574;52.818;6.516;2022-11-15T05:43:36;47.75;;;30.17;;
60722;SDS011;46574;52.818;6.516;2022-11-15T05:46:05;45.55;;;28.52;;
60722;SDS011;46574;52.818;6.516;2022-11-15T05:48:31;47.20;;;30.25;;
60722;SDS011;46574;52.818;6.516;2022-11-15T05:50:59;51.33;;;30.58;;
60722;SDS011;46574;52.818;6.516;2022-11-15T05:53:25;49.28;;;29.25;;
60722;SDS011;46574;52.818;6.516;2022-11-15T05:55:51;51.20;;;32.53;;
60722;SDS011;46574;52.818;6.516;2022-11-15T05:58:18;47.72;;;28.77;;
60722;SDS011;46574;52.818;6.516;2022-11-15T06:00:45;42.17;;;28.13;;
60722;SDS011;46574;52.818;6.516;2022-11-15T06:03:11;44.03;;;29.15;;
60722;SDS011;46574;52.818;6.516;2022-11-15T06:05:39;55.30;;;32.00;;
60722;SDS011;46574;52.818;6.516;2022-11-15T06:08:05;46.50;;;29.67;;
60722;SDS011;46574;52.818;6.516;2022-11-15T06:10:30;44.55;;;28.40;;
60722;SDS011;46574;52.818;6.516;2022-11-15T06:12:57;51.40;;;31.05;;
60722;SDS011;46574;52.818;6.516;2022-11-15T06:15:23;40.97;;;26.42;;
60722;SDS011;46574;52.818;6.516;2022-11-15T06:17:49;46.50;;;28.92;;
60722;SDS011;46574;52.818;6.516;2022-11-15T06:20:15;46.65;;;28.67;;
60722;SDS011;46574;52.818;6.516;2022-11-15T06:22:41;44.97;;;27.52;;
60722;SDS011;46574;52.818;6.516;2022-11-15T06:25:06;46.85;;;29.15;;
60722;SDS011;46574;52.818;6.516;2022-11-15T06:27:32;43.00;;;26.83;;
60722;SDS011;46574;52.818;6.516;2022-11-15T06:29:57;47.92;;;29.23;;
60722;SDS011;46574;52.818;6.516;2022-11-15T06:32:23;41.50;;;27.38;;
60722;SDS011;46574;52.818;6.516;2022-11-15T06:34:49;44.50;;;27.48;;
60722;SDS011;46574;52.818;6.516;2022-11-15T06:37:14;47.00;;;29.20;;
60722;SDS011;46574;52.818;6.516;2022-11-15T06:39:40;40.67;;;26.48;;
60722;SDS011;46574;52.818;6.516;2022-11-15T06:42:07;51.60;;;29.77;;
60722;SDS011;46574;52.818;6.516;2022-11-15T06:44:33;48.17;;;28.15;;
60722;SDS011;46574;52.818;6.516;2022-11-15T06:46:59;49.53;;;29.08;;
60722;SDS011;46574;52.818;6.516;2022-11-15T06:49:24;42.83;;;26.25;;
60722;SDS011;46574;52.818;6.516;2022-11-15T06:51:50;45.10;;;28.67;;
60722;SDS011;46574;52.818;6.516;2022-11-15T06:54:16;40.72;;;26.38;;
60722;SDS011;46574;52.818;6.516;2022-11-15T06:56:41;41.92;;;26.27;;
60722;SDS011;46574;52.818;6.516;2022-11-15T06:59:07;39.58;;;23.95;;
60722;SDS011;46574;52.818;6.516;2022-11-15T07:01:32;38.17;;;24.60;;
60722;SDS011;46574;52.818;6.516;2022-11-15T07:03:58;38.50;;;25.52;;
60722;SDS011;46574;52.818;6.516;2022-11-15T07:06:24;40.67;;;26.20;;
60722;SDS011;46574;52.818;6.516;2022-11-15T07:08:49;42.25;;;26.73;;
60722;SDS011;46574;52.818;6.516;2022-11-15T07:11:15;43.00;;;26.15;;
60722;SDS011;46574;52.818;6.516;2022-11-15T07:13:40;40.35;;;26.25;;
60722;SDS011;46574;52.818;6.516;2022-11-15T07:16:07;33.50;;;23.17;;
60722;SDS011;46574;52.818;6.516;2022-11-15T07:18:34;37.63;;;24.95;;
60722;SDS011;46574;52.818;6.516;2022-11-15T07:21:05;34.72;;;24.23;;
60722;SDS011;46574;52.818;6.516;2022-11-15T07:23:32;36.20;;;24.27;;
60722;SDS011;46574;52.818;6.516;2022-11-15T07:25:58;38.83;;;24.92;;
60722;SDS011;46574;52.818;6.516;2022-11-15T07:28:25;32.95;;;22.42;;
60722;SDS011;46574;52.818;6.516;2022-11-15T07:30:51;33.83;;;23.02;;
60722;SDS011;46574;52.818;6.516;2022-11-15T07:33:16;38.47;;;25.27;;
60722;SDS011;46574;52.818;6.516;2022-11-15T07:35:42;33.05;;;22.42;;
60722;SDS011;46574;52.818;6.516;2022-11-15T07:38:08;32.95;;;22.30;;
60722;SDS011;46574;52.818;6.516;2022-11-15T07:40:33;33.28;;;23.80;;
60722;SDS011;46574;52.818;6.516;2022-11-15T07:43:00;36.55;;;23.70;;
60722;SDS011;46574;52.818;6.516;2022-11-15T07:45:32;31.65;;;22.27;;
60722;SDS011;46574;52.818;6.516;2022-11-15T07:48:01;27.58;;;21.08;;
60722;SDS011;46574;52.818;6.516;2022-11-15T07:50:27;31.05;;;22.13;;
60722;SDS011;46574;52.818;6.516;2022-11-15T07:52:56;33.50;;;22.45;;
60722;SDS011;46574;52.818;6.516;2022-11-15T07:55:24;31.52;;;23.17;;
60722;SDS011;46574;52.818;6.516;2022-11-15T07:57:50;29.80;;;20.90;;
60722;SDS011;46574;52.818;6.516;2022-11-15T08:00:16;30.90;;;22.10;;
60722;SDS011;46574;52.818;6.516;2022-11-15T08:02:42;30.58;;;20.85;;
60722;SDS011;46574;52.818;6.516;2022-11-15T08:05:08;32.63;;;22.48;;
60722;SDS011;46574;52.818;6.516;2022-11-15T08:07:34;28.33;;;20.10;;
60722;SDS011;46574;52.818;6.516;2022-11-15T08:09:59;28.85;;;21.38;;
60722;SDS011;46574;52.818;6.516;2022-11-15T08:12:26;30.02;;;22.48;;
60722;SDS011;46574;52.818;6.516;2022-11-15T08:14:54;30.17;;;22.25;;
60722;SDS011;46574;52.818;6.516;2022-11-15T08:17:20;27.63;;;19.90;;
60722;SDS011;46574;52.818;6.516;2022-11-15T08:19:46;28.70;;;19.88;;
60722;SDS011;46574;52.818;6.516;2022-11-15T08:22:13;28.80;;;20.92;;
60722;SDS011;46574;52.818;6.516;2022-11-15T08:24:39;32.60;;;23.67;;
60722;SDS011;46574;52.818;6.516;2022-11-15T08:27:04;31.15;;;21.55;;
60722;SDS011;46574;52.818;6.516;2022-11-15T08:29:40;29.58;;;21.70;;
60722;SDS011;46574;52.818;6.516;2022-11-15T08:32:06;31.05;;;22.13;;
60722;SDS011;46574;52.818;6.516;2022-11-15T08:34:32;27.70;;;21.08;;
60722;SDS011;46574;52.818;6.516;2022-11-15T08:36:58;28.20;;;21.63;;
60722;SDS011;46574;52.818;6.516;2022-11-15T08:39:23;30.10;;;22.00;;
60722;SDS011;46574;52.818;6.516;2022-11-15T08:41:49;31.40;;;21.80;;
60722;SDS011;46574;52.818;6.516;2022-11-15T08:44:15;34.17;;;23.02;;
60722;SDS011;46574;52.818;6.516;2022-11-15T08:46:40;29.88;;;23.17;;
60722;SDS011;46574;52.818;6.516;2022-11-15T08:49:06;29.00;;;21.95;;
60722;SDS011;46574;52.818;6.516;2022-11-15T08:51:32;29.27;;;22.02;;
60722;SDS011;46574;52.818;6.516;2022-11-15T08:53:57;28.15;;;20.83;;
60722;SDS011;46574;52.818;6.516;2022-11-15T08:56:23;28.17;;;20.52;;
60722;SDS011;46574;52.818;6.516;2022-11-15T08:58:48;32.20;;;23.25;;
60722;SDS011;46574;52.818;6.516;2022-11-15T09:01:15;29.65;;;22.58;;
60722;SDS011;46574;52.818;6.516;2022-11-15T09:03:42;29.50;;;21.53;;
60722;SDS011;46574;52.818;6.516;2022-11-15T09:06:08;35.30;;;22.27;;
60722;SDS011;46574;52.818;6.516;2022-11-15T09:08:34;30.23;;;22.33;;
60722;SDS011;46574;52.818;6.516;2022-11-15T09:11:02;34.13;;;23.42;;
60722;SDS011;46574;52.818;6.516;2022-11-15T09:13:32;27.88;;;20.85;;
60722;SDS011;46574;52.818;6.516;2022-11-15T09:15:58;27.10;;;20.33;;
60722;SDS011;46574;52.818;6.516;2022-11-15T09:18:25;27.75;;;20.08;;
60722;SDS011;46574;52.818;6.516;2022-11-15T09:20:54;26.67;;;21.45;;
60722;SDS011;46574;52.818;6.516;2022-11-15T09:23:24;37.30;;;23.13;;
60722;SDS011;46574;52.818;6.516;2022-11-15T09:25:51;29.23;;;21.17;;
60722;SDS011;46574;52.818;6.516;2022-11-15T09:28:18;28.40;;;21.30;;
60722;SDS011;46574;52.818;6.516;2022-11-15T09:30:44;29.80;;;22.55;;
60722;SDS011;46574;52.818;6.516;2022-11-15T09:33:10;26.00;;;20.25;;
60722;SDS011;46574;52.818;6.516;2022-11-15T09:35:37;27.83;;;19.70;;
60722;SDS011;46574;52.818;6.516;2022-11-15T09:38:02;28.63;;;21.23;;
60722;SDS011;46574;52.818;6.516;2022-11-15T09:40:29;25.42;;;19.17;;
60722;SDS011;46574;52.818;6.516;2022-11-15T09:54:10;27.73;;;21.42;;
60722;SDS011;46574;52.818;6.516;2022-11-15T09:56:50;26.52;;;20.27;;
60722;SDS011;46574;52.818;6.516;2022-11-15T09:59:37;28.10;;;19.17;;
60722;SDS011;46574;52.818;6.516;2022-11-15T10:02:42;22.15;;;17.80;;
60722;SDS011;46574;52.818;6.516;2022-11-15T10:05:12;24.73;;;19.20;;
60722;SDS011;46574;52.818;6.516;2022-11-15T10:07:46;27.30;;;19.60;;
60722;SDS011;46574;52.818;6.516;2022-11-15T10:10:43;23.38;;;17.90;;
60722;SDS011;46574;52.818;6.516;2022-11-15T10:13:28;19.55;;;16.48;;
60722;SDS011;46574;52.818;6.516;2022-11-15T10:16:00;22.55;;;17.30;;
60722;SDS011;46574;52.818;6.516;2022-11-15T10:21:21;21.02;;;17.00;;
60722;SDS011;46574;52.818;6.516;2022-11-15T10:23:52;19.67;;;16.55;;
60722;SDS011;46574;52.818;6.516;2022-11-15T10:26:18;20.20;;;16.27;;
60722;SDS011;46574;52.818;6.516;2022-11-15T10:28:44;15.90;;;14.18;;
60722;SDS011;46574;52.818;6.516;2022-11-15T10:31:23;15.95;;;14.13;;
60722;SDS011;46574;52.818;6.516;2022-11-15T10:33:51;14.10;;;12.43;;
60722;SDS011;46574;52.818;6.516;2022-11-15T10:36:23;14.75;;;11.75;;
60722;SDS011;46574;52.818;6.516;2022-11-15T10:41:29;14.45;;;12.35;;
60722;SDS011;46574;52.818;6.516;2022-11-15T10:44:03;17.23;;;13.48;;
60722;SDS011;46574;52.818;6.516;2022-11-15T10:46:36;15.85;;;11.93;;
60722;SDS011;46574;52.818;6.516;2022-11-15T10:49:14;15.53;;;12.43;;
60722;SDS011;46574;52.818;6.516;2022-11-15T10:51:47;12.57;;;9.90;;
60722;SDS011;46574;52.818;6.516;2022-11-15T10:54:33;10.57;;;9.38;;
60722;SDS011;46574;52.818;6.516;2022-11-15T10:57:13;9.60;;;7.13;;
60722;SDS011;46574;52.818;6.516;2022-11-15T10:59:58;8.88;;;6.32;;
60722;SDS011;46574;52.818;6.516;2022-11-15T11:04:53;8.77;;;5.85;;
60722;SDS011;46574;52.818;6.516;2022-11-15T11:07:23;6.70;;;4.43;;
60722;SDS011;46574;52.818;6.516;2022-11-15T11:10:04;6.10;;;4.75;;
60722;SDS011;46574;52.818;6.516;2022-11-15T11:12:43;6.47;;;4.80;;
60722;SDS011;46574;52.818;6.516;2022-11-15T11:15:12;6.38;;;5.15;;
60722;SDS011;46574;52.818;6.516;2022-11-15T11:34:23;5.40;;;4.90;;
60722;SDS011;46574;52.818;6.516;2022-11-15T11:40:29;6.20;;;4.90;;
60722;SDS011;46574;52.818;6.516;2022-11-15T11:43:10;5.85;;;5.28;;
60722;SDS011;46574;52.818;6.516;2022-11-15T11:51:23;7.55;;;5.10;;
60722;SDS011;46574;52.818;6.516;2022-11-15T11:54:05;8.20;;;5.85;;
60722;SDS011;46574;52.818;6.516;2022-11-15T11:56:39;7.57;;;5.32;;
60722;SDS011;46574;52.818;6.516;2022-11-15T12:01:55;6.32;;;5.68;;
60722;SDS011;46574;52.818;6.516;2022-11-15T12:04:28;9.43;;;5.43;;
60722;SDS011;46574;52.818;6.516;2022-11-15T12:07:01;7.30;;;5.38;;
60722;SDS011;46574;52.818;6.516;2022-11-15T12:09:55;7.78;;;5.50;;
60722;SDS011;46574;52.818;6.516;2022-11-15T12:15:18;6.20;;;5.05;;
60722;SDS011;46574;52.818;6.516;2022-11-15T12:17:52;7.95;;;5.15;;
60722;SDS011;46574;52.818;6.516;2022-11-15T12:20:21;5.80;;;4.97;;
60722;SDS011;46574;52.818;6.516;2022-11-15T12:25:51;7.28;;;4.25;;
60722;SDS011;46574;52.818;6.516;2022-11-15T12:31:14;7.82;;;4.70;;
60722;SDS011;46574;52.818;6.516;2022-11-15T12:34:03;6.07;;;4.18;;
60722;SDS011;46574;52.818;6.516;2022-11-15T12:36:42;5.63;;;4.10;;
60722;SDS011;46574;52.818;6.516;2022-11-15T12:39:09;4.45;;;3.97;;
60722;SDS011;46574;52.818;6.516;2022-11-15T12:41:37;6.13;;;4.30;;
60722;SDS011;46574;52.818;6.516;2022-11-15T12:44:10;4.95;;;3.60;;
60722;SDS011;46574;52.818;6.516;2022-11-15T12:49:10;5.70;;;3.80;;
60722;SDS011;46574;52.818;6.516;2022-11-15T13:02:30;4.13;;;3.72;;
60722;SDS011;46574;52.818;6.516;2022-11-15T13:12:56;5.22;;;2.95;;
60722;SDS011;46574;52.818;6.516;2022-11-15T13:17:57;2.90;;;2.33;;
60722;SDS011;46574;52.818;6.516;2022-11-15T13:20:28;4.75;;;2.90;;
60722;SDS011;46574;52.818;6.516;2022-11-15T13:33:15;5.13;;;2.53;;
60722;SDS011;46574;52.818;6.516;2022-11-15T13:35:54;3.65;;;2.33;;
60722;SDS011;46574;52.818;6.516;2022-11-15T13:38:27;3.50;;;2.70;;
60722;SDS011;46574;52.818;6.516;2022-11-15T13:40:54;2.70;;;2.50;;
60722;SDS011;46574;52.818;6.516;2022-11-15T13:48:35;2.75;;;1.88;;
60722;SDS011;46574;52.818;6.516;2022-11-15T13:51:05;2.97;;;1.70;;
60722;SDS011;46574;52.818;6.516;2022-11-15T13:53:39;2.03;;;1.80;;
60722;SDS011;46574;52.818;6.516;2022-11-15T13:56:08;3.75;;;1.73;;
60722;SDS011;46574;52.818;6.516;2022-11-15T13:58:36;2.80;;;1.50;;
60722;SDS011;46574;52.818;6.516;2022-11-15T14:01:04;2.22;;;1.55;;
60722;SDS011;46574;52.818;6.516;2022-11-15T14:03:31;3.20;;;1.60;;
60722;SDS011;46574;52.818;6.516;2022-11-15T14:08:35;1.92;;;1.55;;
60722;SDS011;46574;52.818;6.516;2022-11-15T14:19:01;3.10;;;1.80;;
60722;SDS011;46574;52.818;6.516;2022-11-15T14:21:28;2.50;;;1.60;;
60722;SDS011;46574;52.818;6.516;2022-11-15T14:26:39;2.35;;;1.60;;
60722;SDS011;46574;52.818;6.516;2022-11-15T14:29:24;1.80;;;1.67;;
60722;SDS011;46574;52.818;6.516;2022-11-15T14:32:16;2.67;;;1.48;;
60722;SDS011;46574;52.818;6.516;2022-11-15T14:34:42;2.47;;;1.70;;
60722;SDS011;46574;52.818;6.516;2022-11-15T14:37:19;3.15;;;2.20;;
60722;SDS011;46574;52.818;6.516;2022-11-15T14:39:49;19.33;;;7.78;;
60722;SDS011;46574;52.818;6.516;2022-11-15T14:42:16;6.55;;;5.95;;
60722;SDS011;46574;52.818;6.516;2022-11-15T14:44:42;7.57;;;4.28;;
60722;SDS011;46574;52.818;6.516;2022-11-15T14:47:08;4.72;;;3.72;;
60722;SDS011;46574;52.818;6.516;2022-11-15T14:49:33;3.42;;;3.08;;
60722;SDS011;46574;52.818;6.516;2022-11-15T14:51:59;4.18;;;2.83;;
60722;SDS011;46574;52.818;6.516;2022-11-15T14:54:24;5.28;;;4.78;;
60722;SDS011;46574;52.818;6.516;2022-11-15T14:56:50;4.78;;;4.40;;
60722;SDS011;46574;52.818;6.516;2022-11-15T14:59:16;5.20;;;4.50;;
60722;SDS011;46574;52.818;6.516;2022-11-15T15:01:41;5.15;;;4.55;;
60722;SDS011;46574;52.818;6.516;2022-11-15T15:04:08;5.32;;;4.82;;
60722;SDS011;46574;52.818;6.516;2022-11-15T15:06:35;5.95;;;5.07;;
60722;SDS011;46574;52.818;6.516;2022-11-15T15:09:00;5.93;;;5.32;;
60722;SDS011;46574;52.818;6.516;2022-11-15T15:11:27;6.68;;;6.00;;
60722;SDS011;46574;52.818;6.516;2022-11-15T15:13:54;6.25;;;5.75;;
60722;SDS011;46574;52.818;6.516;2022-11-15T15:16:22;6.65;;;6.00;;
60722;SDS011;46574;52.818;6.516;2022-11-15T15:18:51;7.28;;;6.10;;
60722;SDS011;46574;52.818;6.516;2022-11-15T15:21:21;7.28;;;6.57;;
60722;SDS011;46574;52.818;6.516;2022-11-15T15:23:49;8.38;;;7.10;;
60722;SDS011;46574;52.818;6.516;2022-11-15T15:26:16;6.38;;;5.85;;
60722;SDS011;46574;52.818;6.516;2022-11-15T15:28:42;7.45;;;6.65;;
60722;SDS011;46574;52.818;6.516;2022-11-15T15:31:08;8.35;;;7.43;;
60722;SDS011;46574;52.818;6.516;2022-11-15T15:33:37;8.18;;;7.38;;
60722;SDS011;46574;52.818;6.516;2022-11-15T15:36:03;9.38;;;8.38;;
60722;SDS011;46574;52.818;6.516;2022-11-15T15:38:29;8.18;;;7.40;;
60722;SDS011;46574;52.818;6.516;2022-11-15T15:40:55;8.00;;;7.18;;
60722;SDS011;46574;52.818;6.516;2022-11-15T15:43:20;8.77;;;7.88;;
60722;SDS011;46574;52.818;6.516;2022-11-15T15:45:46;7.40;;;6.70;;
60722;SDS011;46574;52.818;6.516;2022-11-15T15:48:12;7.80;;;7.07;;
60722;SDS011;46574;52.818;6.516;2022-11-15T15:50:39;7.68;;;6.97;;
60722;SDS011;46574;52.818;6.516;2022-11-15T15:53:05;6.78;;;6.15;;
60722;SDS011;46574;52.818;6.516;2022-11-15T15:55:31;7.05;;;6.55;;
60722;SDS011;46574;52.818;6.516;2022-11-15T15:57:56;7.72;;;6.95;;
60722;SDS011;46574;52.818;6.516;2022-11-15T16:00:23;6.25;;;5.65;;
60722;SDS011;46574;52.818;6.516;2022-11-15T16:02:50;7.10;;;5.43;;
60722;SDS011;46574;52.818;6.516;2022-11-15T16:05:16;5.88;;;5.30;;
60722;SDS011;46574;52.818;6.516;2022-11-15T16:07:42;5.53;;;5.03;;
60722;SDS011;46574;52.818;6.516;2022-11-15T16:10:22;6.03;;;4.95;;
60722;SDS011;46574;52.818;6.516;2022-11-15T16:12:53;6.90;;;5.13;;
60722;SDS011;46574;52.818;6.516;2022-11-15T16:15:20;4.65;;;4.25;;
60722;SDS011;46574;52.818;6.516;2022-11-15T16:17:54;5.32;;;4.30;;
60722;SDS011;46574;52.818;6.516;2022-11-15T16:20:32;4.90;;;4.20;;
60722;SDS011;46574;52.818;6.516;2022-11-15T16:25:27;3.90;;;3.40;;
60722;SDS011;46574;52.818;6.516;2022-11-15T16:27:52;3.55;;;3.33;;
60722;SDS011;46574;52.818;6.516;2022-11-15T16:30:19;3.30;;;3.00;;
60722;SDS011;46574;52.818;6.516;2022-11-15T16:32:46;3.50;;;3.20;;
60722;SDS011;46574;52.818;6.516;2022-11-15T16:35:12;2.90;;;2.53;;
60722;SDS011;46574;52.818;6.516;2022-11-15T16:37:39;3.55;;;2.58;;
60722;SDS011;46574;52.818;6.516;2022-11-15T16:40:28;2.42;;;2.22;;
60722;SDS011;46574;52.818;6.516;2022-11-15T16:42:58;2.65;;;2.45;;
60722;SDS011;46574;52.818;6.516;2022-11-15T16:45:26;2.80;;;2.60;;
60722;SDS011;46574;52.818;6.516;2022-11-15T16:47:53;2.45;;;2.25;;
60722;SDS011;46574;52.818;6.516;2022-11-15T16:50:30;2.40;;;2.10;;
60722;SDS011;46574;52.818;6.516;2022-11-15T16:52:59;2.28;;;2.00;;
60722;SDS011;46574;52.818;6.516;2022-11-15T16:55:26;2.63;;;2.22;;
60722;SDS011;46574;52.818;6.516;2022-11-15T16:57:54;4.05;;;2.65;;
60722;SDS011;46574;52.818;6.516;2022-11-15T17:00:23;2.78;;;1.85;;
60722;SDS011;46574;52.818;6.516;2022-11-15T17:02:50;2.92;;;2.17;;
60722;SDS011;46574;52.818;6.516;2022-11-15T17:05:17;2.95;;;2.10;;
60722;SDS011;46574;52.818;6.516;2022-11-15T17:07:46;3.00;;;2.05;;
60722;SDS011;46574;52.818;6.516;2022-11-15T17:10:18;2.65;;;1.75;;